Time;durP1;ratioP1;P1;durP2;ratioP2;P2;SDS_P1;SDS_P2;PMS_P1;PMS_P2;Temp;Humidity;BMP_temperature;BMP_pressure;BME280_temperature;BME280_humidity;BME280_pressure;Samples;Min_cycle;Max_cycle;Signal;HPM_P1;HPM_P2
2024/02/13 00:02:18;;;;;;;21.85;9.82;;;4.50;97.60;;;;;;5020220;28;20419;-74
2024/02/13 00:04:44;;;;;;;20.67;8.85;;;4.60;96.30;;;;;;5019746;28;20397;-75
2024/02/13 00:07:09;;;;;;;20.77;9.70;;;4.50;96.80;;;;;;5020237;28;20434;-75
2024/02/13 00:09:35;;;;;;;20.13;10.20;;;4.60;97.30;;;;;;5017334;28;20765;-75
2024/02/13 00:12:01;;;;;;;26.90;10.35;;;4.60;96.70;;;;;;5019699;28;20389;-74
2024/02/13 00:14:26;;;;;;;23.45;11.23;;;4.50;96.70;;;;;;5018239;28;20439;-73
2024/02/13 00:16:52;;;;;;;23.10;10.70;;;4.40;98.10;;;;;;5019531;28;20411;-75
2024/02/13 00:19:17;;;;;;;23.60;11.00;;;4.40;98.70;;;;;;5020129;28;20458;-74
2024/02/13 00:21:43;;;;;;;26.97;11.07;;;4.40;99.20;;;;;;5019422;28;20404;-73
2024/02/13 00:24:09;;;;;;;30.53;12.13;;;4.50;99.90;;;;;;5019934;28;20471;-73
2024/02/13 00:26:34;;;;;;;23.60;11.43;;;4.60;99.00;;;;;;5021428;28;20435;-74
2024/02/13 00:29:03;;;;;;;24.70;11.38;;;4.70;98.00;;;;;;5021920;28;20415;-74
2024/02/13 00:31:29;;;;;;;29.20;12.20;;;4.60;97.80;;;;;;5019548;28;20463;-73
2024/02/13 00:33:55;;;;;;;25.43;12.10;;;4.40;99.00;;;;;;5023174;28;20388;-75
2024/02/13 00:36:21;;;;;;;20.43;11.13;;;4.50;99.70;;;;;;5022887;28;20464;-76
2024/02/13 00:38:47;;;;;;;27.97;12.70;;;4.60;99.20;;;;;;5023646;28;21003;-75
2024/02/13 00:41:12;;;;;;;24.33;11.90;;;4.50;99.00;;;;;;5023871;28;20377;-76
2024/02/13 00:43:38;;;;;;;23.10;11.88;;;4.50;98.90;;;;;;5022885;28;20396;-74
2024/02/13 00:46:04;;;;;;;20.95;11.23;;;4.50;99.50;;;;;;5025128;28;20385;-73
2024/02/13 00:48:32;;;;;;;19.88;11.45;;;4.60;99.40;;;;;;5019462;28;20832;-75
2024/02/13 00:51:01;;;;;;;22.73;12.02;;;4.50;99.60;;;;;;5021218;28;20416;-73
2024/02/13 00:53:26;;;;;;;20.38;10.75;;;4.60;97.50;;;;;;5021032;28;20388;-76
2024/02/13 00:55:52;;;;;;;22.00;10.77;;;4.60;94.50;;;;;;5016434;28;20905;-74
2024/02/13 00:58:18;;;;;;;22.02;11.52;;;4.40;94.50;;;;;;5016016;28;20415;-76
2024/02/13 01:00:43;;;;;;;22.10;11.50;;;4.30;94.90;;;;;;5016694;28;20397;-75
2024/02/13 01:03:12;;;;;;;21.50;12.23;;;4.10;96.60;;;;;;5015920;28;20384;-76
2024/02/13 01:05:40;;;;;;;23.92;12.07;;;3.90;98.10;;;;;;5013903;28;20400;-73
2024/02/13 01:08:07;;;;;;;25.03;12.10;;;3.80;99.50;;;;;;5014830;28;20401;-73
2024/02/13 01:10:33;;;;;;;22.70;11.90;;;3.70;99.90;;;;;;5015281;28;20423;-74
2024/02/13 01:12:59;;;;;;;21.42;11.20;;;3.70;99.90;;;;;;5017456;28;20389;-74
2024/02/13 01:15:26;;;;;;;25.50;11.88;;;3.70;99.90;;;;;;5017578;28;20926;-75
2024/02/13 01:17:54;;;;;;;19.85;11.05;;;3.60;99.90;;;;;;5016367;28;20381;-74
2024/02/13 01:20:20;;;;;;;25.20;11.65;;;3.60;99.90;;;;;;5016515;28;20413;-73
2024/02/13 01:22:46;;;;;;;22.63;11.82;;;3.50;99.90;;;;;;5017950;28;20901;-74
2024/02/13 01:25:14;;;;;;;22.50;12.25;;;3.50;99.90;;;;;;5016507;28;20400;-73
2024/02/13 01:27:40;;;;;;;20.23;12.27;;;3.40;99.90;;;;;;5015760;28;20396;-75
2024/02/13 01:30:09;;;;;;;25.90;13.10;;;3.40;99.90;;;;;;5014556;28;20470;-75
2024/02/13 01:32:40;;;;;;;21.02;12.80;;;3.40;99.90;;;;;;5014961;28;20389;-74
2024/02/13 01:35:10;;;;;;;24.70;12.77;;;3.30;99.90;;;;;;5014135;28;20388;-75
2024/02/13 01:37:35;;;;;;;25.60;12.65;;;3.30;99.90;;;;;;5014869;28;20381;-75
2024/02/13 01:40:02;;;;;;;32.00;14.60;;;3.30;99.90;;;;;;5014751;28;20868;-73
2024/02/13 01:42:28;;;;;;;21.00;12.45;;;3.50;99.90;;;;;;5017403;28;20389;-74
2024/02/13 01:44:53;;;;;;;20.30;12.85;;;3.60;99.90;;;;;;5017168;28;20404;-75
2024/02/13 01:47:21;;;;;;;23.55;12.40;;;3.80;99.90;;;;;;5016418;28;20385;-76
2024/02/13 01:49:47;;;;;;;21.52;12.90;;;3.90;99.90;;;;;;5016660;28;20404;-74
2024/02/13 01:52:13;;;;;;;21.13;12.93;;;3.80;99.90;;;;;;5016917;28;20385;-75
2024/02/13 01:54:39;;;;;;;23.15;12.80;;;3.80;99.90;;;;;;5014149;28;20388;-74
2024/02/13 01:57:05;;;;;;;25.80;12.52;;;3.70;99.90;;;;;;5014700;28;20380;-74
2024/02/13 01:59:38;;;;;;;28.00;13.40;;;3.80;99.90;;;;;;5017171;28;20741;-74
2024/02/13 02:02:08;;;;;;;21.23;13.10;;;3.70;99.90;;;;;;5016371;28;21066;-75
2024/02/13 02:04:37;;;;;;;23.52;13.57;;;3.60;99.90;;;;;;5014839;28;20400;-74
2024/02/13 02:07:03;;;;;;;29.38;13.02;;;3.60;99.90;;;;;;5014506;28;20785;-73
2024/02/13 02:09:30;;;;;;;28.88;14.18;;;3.60;99.90;;;;;;5020823;28;20492;-74
2024/02/13 02:11:57;;;;;;;26.60;13.90;;;3.50;99.90;;;;;;5025699;28;20450;-74
2024/02/13 02:14:22;;;;;;;26.77;14.05;;;3.50;99.90;;;;;;5025348;28;20795;-73
2024/02/13 02:16:49;;;;;;;26.70;13.90;;;3.70;99.90;;;;;;5015464;28;20389;-74
2024/02/13 02:19:16;;;;;;;26.08;12.95;;;3.60;99.90;;;;;;5015885;28;20397;-73
2024/02/13 02:21:42;;;;;;;30.23;14.63;;;3.60;99.90;;;;;;5012343;28;20394;-73
2024/02/13 02:24:07;;;;;;;27.73;15.20;;;3.60;99.90;;;;;;5011555;28;20389;-73
2024/02/13 02:26:33;;;;;;;27.33;14.03;;;3.60;99.90;;;;;;5011668;28;20898;-73
2024/02/13 02:28:59;;;;;;;29.60;14.87;;;3.60;99.90;;;;;;5011932;28;20923;-71
2024/02/13 02:31:24;;;;;;;29.40;15.33;;;3.60;99.90;;;;;;5012035;28;20396;-73
2024/02/13 02:33:50;;;;;;;33.40;14.30;;;3.60;99.90;;;;;;5015362;28;20888;-70
2024/02/13 02:36:16;;;;;;;28.58;14.90;;;3.60;99.90;;;;;;5016415;28;20408;-73
2024/02/13 02:38:41;;;;;;;28.58;15.05;;;3.60;99.90;;;;;;5014972;28;20389;-73
2024/02/13 02:41:07;;;;;;;29.87;14.57;;;3.60;99.90;;;;;;5012746;28;20464;-73
2024/02/13 02:43:36;;;;;;;27.53;14.33;;;3.60;99.90;;;;;;5011283;28;20388;-73
2024/02/13 02:46:01;;;;;;;27.80;14.73;;;3.50;99.90;;;;;;5011591;28;20389;-73
2024/02/13 02:48:27;;;;;;;33.33;15.10;;;3.50;99.90;;;;;;5011434;28;20379;-73
2024/02/13 02:50:52;;;;;;;33.67;15.40;;;3.50;99.90;;;;;;5011495;28;20410;-73
2024/02/13 02:53:18;;;;;;;29.83;15.27;;;3.50;99.90;;;;;;5011367;28;20466;-73
2024/02/13 02:55:43;;;;;;;28.57;15.50;;;3.50;99.90;;;;;;5011294;28;20472;-73
2024/02/13 02:58:09;;;;;;;29.37;15.20;;;3.50;99.90;;;;;;5010175;28;20389;-73
2024/02/13 03:00:35;;;;;;;30.50;14.97;;;3.50;99.90;;;;;;5011329;28;20396;-73
2024/02/13 03:03:02;;;;;;;30.58;15.15;;;3.50;99.90;;;;;;5011220;28;20479;-72
2024/02/13 03:05:28;;;;;;;26.15;16.13;;;3.50;99.90;;;;;;5011832;28;20395;-72
2024/02/13 03:07:54;;;;;;;30.20;16.27;;;3.50;99.90;;;;;;5012125;28;20476;-72
2024/02/13 03:10:20;;;;;;;26.48;16.50;;;3.50;99.90;;;;;;5011754;28;20491;-72
2024/02/13 03:12:46;;;;;;;42.83;16.80;;;3.40;99.90;;;;;;5011635;28;20439;-74
2024/02/13 03:15:12;;;;;;;29.42;16.88;;;3.50;99.90;;;;;;5009860;28;20388;-73
2024/02/13 03:17:38;;;;;;;29.15;15.75;;;3.50;99.90;;;;;;5009779;28;20775;-73
2024/02/13 03:20:06;;;;;;;31.45;16.38;;;3.50;99.90;;;;;;5010950;28;20423;-73
2024/02/13 03:22:36;;;;;;;32.40;16.10;;;3.50;99.90;;;;;;5010242;28;20463;-73
2024/02/13 03:25:02;;;;;;;31.50;17.60;;;3.40;99.90;;;;;;5010819;28;20439;-73
2024/02/13 03:27:27;;;;;;;31.08;16.25;;;3.40;99.90;;;;;;5010932;28;20767;-73
2024/02/13 03:29:53;;;;;;;29.50;16.60;;;3.40;99.90;;;;;;5014409;28;20809;-74
2024/02/13 03:32:19;;;;;;;31.03;16.97;;;3.50;99.90;;;;;;5014197;28;20443;-72
2024/02/13 03:34:44;;;;;;;36.15;17.73;;;3.50;99.90;;;;;;5014060;28;20437;-72
2024/02/13 03:37:10;;;;;;;33.65;18.00;;;3.50;99.90;;;;;;5015040;28;20752;-73
2024/02/13 03:39:36;;;;;;;35.45;18.10;;;3.40;99.90;;;;;;5015433;28;20867;-72
2024/02/13 03:42:02;;;;;;;36.60;18.08;;;3.40;99.90;;;;;;5015672;28;20390;-71
2024/02/13 03:44:28;;;;;;;31.90;16.70;;;3.50;99.90;;;;;;5014124;28;20756;-73
2024/02/13 03:46:54;;;;;;;30.30;16.52;;;3.50;99.90;;;;;;5012842;28;20415;-73
2024/02/13 03:49:19;;;;;;;34.70;18.27;;;3.50;99.90;;;;;;5013797;28;20389;-72
2024/02/13 03:51:45;;;;;;;35.37;17.77;;;3.50;99.90;;;;;;5014189;28;20389;-71
2024/02/13 03:54:10;;;;;;;35.40;17.63;;;3.60;99.90;;;;;;5013868;28;20464;-73
2024/02/13 03:56:37;;;;;;;32.77;17.20;;;3.60;99.90;;;;;;5013972;28;20380;-73
2024/02/13 03:59:08;;;;;;;32.70;17.25;;;3.60;99.90;;;;;;5012496;28;20931;-73
2024/02/13 04:01:35;;;;;;;30.25;17.38;;;3.60;99.90;;;;;;5014120;28;20396;-73
2024/02/13 04:04:01;;;;;;;34.53;18.15;;;3.60;99.90;;;;;;5012271;28;20393;-74
2024/02/13 04:06:26;;;;;;;32.37;17.60;;;3.50;99.90;;;;;;5013768;28;20588;-73
2024/02/13 04:08:52;;;;;;;39.60;18.37;;;3.50;99.90;;;;;;5014373;28;20394;-71
2024/02/13 04:11:18;;;;;;;32.10;18.23;;;3.50;99.90;;;;;;5013624;28;20426;-73
2024/02/13 04:13:44;;;;;;;35.13;18.10;;;3.60;99.90;;;;;;5013737;28;20397;-73
2024/02/13 04:16:10;;;;;;;33.28;18.50;;;3.50;99.90;;;;;;5013712;28;20472;-73
2024/02/13 04:18:37;;;;;;;38.08;19.00;;;3.50;99.90;;;;;;5013429;28;20768;-73
2024/02/13 04:21:02;;;;;;;38.85;19.30;;;3.50;99.90;;;;;;5013473;28;20396;-73
2024/02/13 04:23:28;;;;;;;32.90;17.70;;;3.50;99.90;;;;;;5013305;28;20477;-73
2024/02/13 04:25:54;;;;;;;39.20;18.50;;;3.50;99.90;;;;;;5015872;28;20446;-73
2024/02/13 04:28:21;;;;;;;34.35;17.67;;;3.50;99.90;;;;;;5014918;28;20389;-73
2024/02/13 04:30:47;;;;;;;38.38;18.48;;;3.40;99.90;;;;;;5012060;28;20411;-73
2024/02/13 04:33:13;;;;;;;37.55;18.40;;;3.40;99.90;;;;;;5013023;28;20389;-73
2024/02/13 04:35:39;;;;;;;29.87;18.47;;;3.40;99.90;;;;;;5013417;28;20701;-72
2024/02/13 04:38:05;;;;;;;39.47;18.33;;;3.30;99.90;;;;;;5013354;28;20459;-72
2024/02/13 04:40:33;;;;;;;35.00;18.60;;;3.30;99.90;;;;;;5012293;28;20389;-73
2024/02/13 04:42:58;;;;;;;28.38;16.88;;;3.30;99.90;;;;;;5012735;28;20813;-73
2024/02/13 04:45:24;;;;;;;32.90;17.48;;;3.30;99.90;;;;;;5013267;28;20407;-72
2024/02/13 04:47:49;;;;;;;37.85;17.45;;;3.20;99.90;;;;;;5013420;28;20951;-72
2024/02/13 04:50:15;;;;;;;38.33;19.00;;;3.20;99.90;;;;;;5012673;28;20763;-73
2024/02/13 04:52:41;;;;;;;35.07;17.00;;;3.20;99.90;;;;;;5013157;28;20463;-72
2024/02/13 04:55:07;;;;;;;36.80;18.37;;;3.20;99.90;;;;;;5012674;28;20795;-73
2024/02/13 04:57:33;;;;;;;32.65;17.33;;;3.20;99.90;;;;;;5012873;28;20879;-73
2024/02/13 05:00:13;;;;;;;34.72;18.10;;;3.20;99.90;;;;;;5012694;28;20389;-73
2024/02/13 05:02:39;;;;;;;32.88;17.65;;;3.20;99.90;;;;;;5012617;28;20731;-72
2024/02/13 05:07:50;;;;;;;40.20;18.25;;;3.10;99.90;;;;;;5013002;28;20388;-73
2024/02/13 05:10:16;;;;;;;38.85;18.30;;;3.10;99.90;;;;;;5012039;28;20405;-73
2024/02/13 05:12:43;;;;;;;30.80;17.20;;;3.10;99.90;;;;;;5012331;28;20397;-72
2024/02/13 05:15:10;;;;;;;36.22;17.35;;;3.00;99.90;;;;;;5012043;28;20383;-73
2024/02/13 05:17:36;;;;;;;37.33;16.80;;;3.00;99.90;;;;;;5012640;28;20405;-73
2024/02/13 05:20:02;;;;;;;30.58;16.67;;;3.00;99.90;;;;;;5012323;28;20404;-73
2024/02/13 05:22:28;;;;;;;42.30;17.30;;;3.00;99.90;;;;;;5012289;28;20393;-73
2024/02/13 05:24:54;;;;;;;39.23;17.93;;;3.00;99.90;;;;;;5012276;28;20443;-73
2024/02/13 05:27:19;;;;;;;32.47;16.53;;;3.00;99.90;;;;;;5012242;28;20454;-73
2024/02/13 05:29:45;;;;;;;36.03;17.20;;;2.90;99.90;;;;;;5011833;28;20505;-73
2024/02/13 05:32:10;;;;;;;32.60;15.90;;;3.00;99.90;;;;;;5011978;28;20397;-73
2024/02/13 05:34:36;;;;;;;36.77;16.50;;;3.00;99.90;;;;;;5012470;28;20385;-72
2024/02/13 05:37:02;;;;;;;39.13;16.05;;;3.00;99.90;;;;;;5012198;28;20388;-72
2024/02/13 05:39:28;;;;;;;34.35;16.70;;;3.00;99.90;;;;;;5011951;28;20485;-73
2024/02/13 05:41:54;;;;;;;33.35;16.95;;;3.00;99.90;;;;;;5011981;28;20395;-72
2024/02/13 05:44:21;;;;;;;31.73;16.60;;;3.10;99.90;;;;;;5011738;28;20764;-73
2024/02/13 05:46:46;;;;;;;34.75;15.65;;;3.10;99.90;;;;;;5011628;28;20819;-71
2024/02/13 05:49:12;;;;;;;35.93;16.50;;;3.10;99.90;;;;;;5011804;28;20392;-73
2024/02/13 05:51:38;;;;;;;35.30;16.00;;;3.20;99.90;;;;;;5011613;28;20460;-72
2024/02/13 05:54:09;;;;;;;26.98;14.57;;;3.20;99.90;;;;;;5011574;28;20465;-73
2024/02/13 05:56:35;;;;;;;30.75;14.25;;;3.30;99.90;;;;;;5011664;28;20486;-73
2024/02/13 05:59:03;;;;;;;31.40;14.90;;;3.30;99.90;;;;;;5011640;28;20572;-73
2024/02/13 06:01:29;;;;;;;27.58;14.82;;;3.40;99.90;;;;;;5012271;28;20392;-73
2024/02/13 06:03:57;;;;;;;26.95;14.88;;;3.40;99.90;;;;;;5011092;28;20412;-73
2024/02/13 06:06:24;;;;;;;31.85;15.95;;;3.40;99.90;;;;;;5011584;28;20431;-73
2024/02/13 06:08:52;;;;;;;34.80;14.98;;;3.30;99.90;;;;;;5011026;28;20461;-73
2024/02/13 06:11:18;;;;;;;30.88;14.85;;;3.30;99.90;;;;;;5011124;28;20834;-72
2024/02/13 06:13:45;;;;;;;37.23;15.87;;;3.30;99.90;;;;;;5011339;28;20416;-73
2024/02/13 06:16:12;;;;;;;34.55;15.27;;;3.30;99.90;;;;;;5012423;28;20457;-74
2024/02/13 06:18:37;;;;;;;30.98;14.90;;;3.30;99.90;;;;;;5011702;28;20389;-73
2024/02/13 06:21:04;;;;;;;32.08;14.90;;;3.40;99.90;;;;;;5012479;28;20385;-74
2024/02/13 06:23:31;;;;;;;29.33;14.52;;;3.40;99.90;;;;;;5010934;28;21482;-74
2024/02/13 06:25:58;;;;;;;30.75;15.07;;;3.50;99.90;;;;;;5011258;28;20428;-74
2024/02/13 06:28:23;;;;;;;27.60;13.45;;;3.40;99.90;;;;;;5009788;28;20401;-73
2024/02/13 06:30:49;;;;;;;26.20;14.38;;;3.40;99.90;;;;;;5010705;28;20424;-74
2024/02/13 06:33:14;;;;;;;33.10;14.98;;;3.40;99.90;;;;;;5012446;28;20385;-72
2024/02/13 06:35:40;;;;;;;35.73;15.00;;;3.40;99.90;;;;;;5011536;28;20385;-73
2024/02/13 06:38:06;;;;;;;28.75;13.88;;;3.40;99.90;;;;;;5012594;28;20388;-74
2024/02/13 06:40:32;;;;;;;29.42;14.70;;;3.40;99.90;;;;;;5011324;28;20444;-73
2024/02/13 06:42:58;;;;;;;26.80;14.50;;;3.40;99.90;;;;;;5011184;28;20385;-74
2024/02/13 06:45:25;;;;;;;28.50;13.55;;;3.50;99.90;;;;;;5009873;28;20443;-72
2024/02/13 06:47:51;;;;;;;25.63;13.65;;;3.40;99.90;;;;;;5011758;28;20432;-75
2024/02/13 06:50:17;;;;;;;29.20;13.60;;;3.40;99.90;;;;;;5012588;28;20401;-73
2024/02/13 06:52:43;;;;;;;29.30;14.03;;;3.40;99.90;;;;;;5011777;28;20404;-74
2024/02/13 06:55:09;;;;;;;25.60;13.52;;;3.50;99.90;;;;;;5023310;28;20396;-74
2024/02/13 06:57:35;;;;;;;26.67;13.67;;;3.50;99.90;;;;;;5032454;28;20916;-74
2024/02/13 07:00:08;;;;;;;27.80;13.82;;;3.50;99.90;;;;;;5032605;28;20406;-73
2024/02/13 07:02:35;;;;;;;32.88;13.90;;;3.40;99.90;;;;;;5030317;28;20396;-74
2024/02/13 07:05:00;;;;;;;27.87;13.37;;;3.40;99.90;;;;;;5033695;28;20439;-72
2024/02/13 07:07:27;;;;;;;29.88;13.80;;;3.50;99.90;;;;;;5034455;28;20373;-73
2024/02/13 07:09:53;;;;;;;25.77;13.05;;;3.50;99.90;;;;;;5033107;28;20444;-72
2024/02/13 07:12:20;;;;;;;31.77;13.38;;;3.50;99.90;;;;;;5032771;28;20392;-73
2024/02/13 07:14:46;;;;;;;27.45;12.70;;;3.50;99.90;;;;;;5033691;28;20391;-72
2024/02/13 07:17:11;;;;;;;25.50;13.15;;;3.60;99.90;;;;;;5035680;28;20400;-73
2024/02/13 07:19:37;;;;;;;25.53;12.90;;;3.60;99.90;;;;;;5035174;28;20403;-73
2024/02/13 07:22:02;;;;;;;26.53;13.43;;;3.60;99.90;;;;;;5032849;28;20396;-73
2024/02/13 07:24:29;;;;;;;23.93;13.20;;;3.70;99.90;;;;;;5033813;28;20388;-75
2024/02/13 07:26:54;;;;;;;28.58;13.10;;;3.80;99.90;;;;;;5035538;28;20392;-73
2024/02/13 07:29:20;;;;;;;29.93;12.83;;;3.80;99.90;;;;;;5032413;28;20472;-73
2024/02/13 07:31:46;;;;;;;26.97;12.23;;;3.90;99.90;;;;;;5031054;28;20452;-72
2024/02/13 07:34:12;;;;;;;24.27;13.18;;;4.00;99.90;;;;;;5023132;28;20441;-73
2024/02/13 07:36:38;;;;;;;25.50;12.40;;;4.00;99.90;;;;;;5028382;28;20389;-73
2024/02/13 07:39:03;;;;;;;22.33;11.57;;;4.00;99.90;;;;;;5031010;28;20793;-72
2024/02/13 07:41:29;;;;;;;20.50;11.40;;;4.10;99.90;;;;;;5022704;28;20777;-74
2024/02/13 07:43:55;;;;;;;24.90;12.23;;;4.10;99.90;;;;;;5017674;28;20401;-73
2024/02/13 07:46:20;;;;;;;24.10;13.27;;;4.10;99.90;;;;;;5016824;28;20388;-73
2024/02/13 07:48:47;;;;;;;24.17;11.53;;;4.20;99.90;;;;;;5015308;28;20434;-73
2024/02/13 07:51:14;;;;;;;22.40;11.97;;;4.20;99.90;;;;;;5015077;28;20502;-73
2024/02/13 07:53:40;;;;;;;22.48;10.70;;;4.30;99.90;;;;;;5013697;28;20443;-72
2024/02/13 07:56:06;;;;;;;25.58;11.88;;;4.30;99.90;;;;;;5016315;28;20411;-73
2024/02/13 07:58:32;;;;;;;23.92;11.65;;;4.40;99.90;;;;;;5015769;28;20377;-74
2024/02/13 08:00:57;;;;;;;22.38;11.20;;;4.50;99.90;;;;;;5014750;28;20396;-73
2024/02/13 08:03:23;;;;;;;20.77;11.63;;;4.50;99.90;;;;;;5013640;28;20385;-73
2024/02/13 08:05:50;;;;;;;24.10;11.60;;;4.60;99.90;;;;;;5013576;28;20504;-73
2024/02/13 08:08:16;;;;;;;22.20;10.77;;;4.60;99.90;;;;;;5013633;28;20402;-73
2024/02/13 08:10:42;;;;;;;19.80;11.20;;;4.70;99.90;;;;;;5012890;28;20421;-72
2024/02/13 08:13:09;;;;;;;23.23;11.10;;;4.70;99.90;;;;;;5012704;28;20516;-72
2024/02/13 08:15:36;;;;;;;23.58;10.30;;;4.80;99.90;;;;;;5011843;28;20429;-73
2024/02/13 08:18:03;;;;;;;19.90;10.90;;;4.80;98.50;;;;;;5013431;28;20467;-72
2024/02/13 08:20:28;;;;;;;22.33;10.90;;;4.80;98.50;;;;;;5013699;28;20403;-74
2024/02/13 08:22:54;;;;;;;23.83;10.40;;;4.90;98.50;;;;;;5014750;28;20856;-74
2024/02/13 08:25:19;;;;;;;19.20;10.80;;;4.90;97.70;;;;;;5013665;28;20385;-75
2024/02/13 08:27:45;;;;;;;20.25;10.82;;;4.90;98.30;;;;;;5012625;28;20415;-74
2024/02/13 08:30:11;;;;;;;19.10;10.55;;;5.00;94.60;;;;;;5012417;28;20416;-74
2024/02/13 08:32:41;;;;;;;25.77;10.63;;;5.00;93.80;;;;;;5012792;28;20381;-75
2024/02/13 08:35:08;;;;;;;26.50;10.85;;;5.10;93.20;;;;;;5012676;28;20376;-74
2024/02/13 08:37:37;;;;;;;19.98;10.38;;;5.10;93.30;;;;;;5012875;28;20384;-72
2024/02/13 08:40:04;;;;;;;18.88;10.18;;;5.20;93.00;;;;;;5013484;28;20412;-75
2024/02/13 08:42:34;;;;;;;20.15;9.88;;;5.10;92.20;;;;;;5013330;28;20389;-73
2024/02/13 08:45:00;;;;;;;16.15;10.05;;;5.20;91.60;;;;;;5013072;28;20408;-74
2024/02/13 08:47:26;;;;;;;17.23;9.30;;;5.30;92.50;;;;;;5015276;28;20479;-75
2024/02/13 08:49:52;;;;;;;15.70;8.32;;;5.40;89.00;;;;;;5013137;28;20448;-73
2024/02/13 08:52:17;;;;;;;17.05;8.68;;;5.60;87.80;;;;;;5012424;28;20385;-73
2024/02/13 08:54:43;;;;;;;14.95;8.75;;;5.80;85.20;;;;;;5012114;28;20429;-75
2024/02/13 08:57:08;;;;;;;18.73;8.68;;;5.90;84.10;;;;;;5013521;28;20922;-73
2024/02/13 08:59:34;;;;;;;13.40;8.40;;;6.10;83.20;;;;;;5012604;28;20884;-73
2024/02/13 09:02:00;;;;;;;19.42;7.93;;;6.10;79.50;;;;;;5012108;28;20556;-75
2024/02/13 09:04:25;;;;;;;19.52;7.53;;;6.20;78.30;;;;;;5011945;28;20389;-75
2024/02/13 09:06:51;;;;;;;13.13;8.03;;;6.20;78.30;;;;;;5012110;28;20890;-74
2024/02/13 09:09:16;;;;;;;17.33;8.00;;;6.20;77.20;;;;;;5011803;28;20891;-74
2024/02/13 09:11:42;;;;;;;16.47;7.77;;;6.20;76.80;;;;;;5011988;28;20392;-74
2024/02/13 09:14:09;;;;;;;15.40;7.70;;;6.20;77.00;;;;;;5010703;28;20476;-74
2024/02/13 09:16:35;;;;;;;18.05;8.50;;;6.40;76.30;;;;;;5011801;28;20928;-73
2024/02/13 09:19:00;;;;;;;13.05;7.88;;;6.40;74.90;;;;;;5011912;28;20491;-74
2024/02/13 09:21:26;;;;;;;14.23;8.35;;;6.60;75.50;;;;;;5012076;28;20475;-74
2024/02/13 09:23:52;;;;;;;15.73;6.68;;;6.60;75.80;;;;;;5011741;28;20400;-72
2024/02/13 09:26:18;;;;;;;12.57;6.00;;;6.90;73.00;;;;;;5011355;28;20998;-74
2024/02/13 09:28:44;;;;;;;10.60;5.43;;;7.10;71.70;;;;;;5012081;28;20443;-76
2024/02/13 09:31:11;;;;;;;10.82;4.88;;;7.40;70.30;;;;;;5011873;28;20408;-73
2024/02/13 09:33:39;;;;;;;12.18;5.00;;;7.70;64.70;;;;;;5011613;28;20431;-74
2024/02/13 09:36:05;;;;;;;14.45;3.50;;;8.00;63.70;;;;;;5011724;28;20427;-73
2024/02/13 09:38:31;;;;;;;15.38;4.38;;;8.40;56.90;;;;;;5010565;28;20419;-72
2024/02/13 09:40:58;;;;;;;11.00;3.50;;;8.60;56.80;;;;;;5013443;28;20380;-74
2024/02/13 09:43:24;;;;;;;8.38;3.72;;;8.70;54.40;;;;;;5011594;28;20416;-73
2024/02/13 09:45:50;;;;;;;7.80;3.50;;;8.80;53.40;;;;;;5011307;28;20397;-74
2024/02/13 09:48:20;;;;;;;9.38;3.63;;;8.90;52.00;;;;;;5011765;28;20400;-73
2024/02/13 09:50:48;;;;;;;8.40;2.80;;;9.10;50.40;;;;;;5010815;28;20485;-72
2024/02/13 09:53:24;;;;;;;8.20;3.00;;;8.90;50.80;;;;;;5011262;28;20404;-74
2024/02/13 09:55:50;;;;;;;8.13;3.30;;;8.90;51.90;;;;;;5011337;28;20384;-74
2024/02/13 09:58:18;;;;;;;14.20;3.95;;;9.00;51.10;;;;;;5011320;28;20451;-74
2024/02/13 10:00:43;;;;;;;7.72;2.40;;;8.90;52.20;;;;;;5010909;28;20463;-73
2024/02/13 10:03:09;;;;;;;10.88;2.60;;;9.00;49.00;;;;;;5011017;28;20887;-74
2024/02/13 10:05:36;;;;;;;8.98;2.60;;;8.90;49.60;;;;;;5011062;28;20385;-73
2024/02/13 10:08:01;;;;;;;7.28;2.67;;;8.90;48.60;;;;;;5011263;28;20413;-73
2024/02/13 10:10:29;;;;;;;6.88;2.45;;;9.00;47.20;;;;;;5010626;28;20827;-73
2024/02/13 10:12:59;;;;;;;11.17;2.30;;;9.00;46.20;;;;;;5010920;28;20400;-74
2024/02/13 10:15:36;;;;;;;13.10;2.70;;;8.80;46.30;;;;;;5012145;28;20439;-73
2024/02/13 10:18:03;;;;;;;10.30;2.33;;;8.80;46.20;;;;;;5010900;28;20758;-74
2024/02/13 10:20:30;;;;;;;7.95;2.10;;;8.70;46.10;;;;;;5010637;28;20483;-75
2024/02/13 10:23:00;;;;;;;7.88;2.20;;;8.70;45.70;;;;;;5009220;28;20396;-73
2024/02/13 10:25:31;;;;;;;6.93;2.65;;;8.80;45.00;;;;;;5011704;28;20408;-73
2024/02/13 10:28:00;;;;;;;11.02;2.90;;;8.90;43.90;;;;;;5012290;28;21000;-74
2024/02/13 10:30:27;;;;;;;10.80;2.60;;;9.10;44.00;;;;;;5011137;28;20459;-74
2024/02/13 10:32:53;;;;;;;13.30;2.78;;;9.10;42.10;;;;;;5011292;28;20412;-73
2024/02/13 10:35:21;;;;;;;9.77;2.55;;;9.10;42.50;;;;;;5011995;28;20396;-73
2024/02/13 10:37:48;;;;;;;7.10;2.20;;;9.10;42.10;;;;;;5012889;28;20385;-74
2024/02/13 10:40:26;;;;;;;12.32;2.83;;;9.20;42.50;;;;;;5013405;28;20396;-73
2024/02/13 10:42:53;;;;;;;11.75;3.00;;;9.20;41.40;;;;;;5012371;28;20422;-72
2024/02/13 10:45:25;;;;;;;7.38;2.60;;;9.30;42.00;;;;;;5011928;28;20399;-74
2024/02/13 10:47:54;;;;;;;7.13;2.40;;;9.20;41.10;;;;;;5013400;28;20771;-74
2024/02/13 10:50:20;;;;;;;9.25;2.38;;;9.30;41.80;;;;;;5012928;28;20405;-74
2024/02/13 10:52:55;;;;;;;12.50;3.05;;;9.30;41.70;;;;;;5011289;28;20489;-73
2024/02/13 10:55:21;;;;;;;6.53;2.75;;;9.40;40.70;;;;;;5011149;28;20760;-73
2024/02/13 10:57:49;;;;;;;6.03;2.63;;;9.40;40.70;;;;;;5011028;28;20903;-74
2024/02/13 11:00:19;;;;;;;8.15;2.78;;;9.50;41.40;;;;;;5010905;28;20398;-74
2024/02/13 11:02:47;;;;;;;6.72;2.47;;;9.70;40.60;;;;;;5010761;28;20811;-74
2024/02/13 11:05:15;;;;;;;9.68;2.50;;;9.90;38.90;;;;;;5010935;28;20438;-74
2024/02/13 11:07:41;;;;;;;7.57;2.33;;;9.90;38.70;;;;;;5010462;28;20384;-74
2024/02/13 11:10:08;;;;;;;11.40;2.30;;;10.00;38.10;;;;;;5013204;28;20473;-74
2024/02/13 11:12:38;;;;;;;9.15;2.53;;;10.00;37.60;;;;;;5021402;28;20377;-73
2024/02/13 11:15:18;;;;;;;4.68;2.22;;;10.10;37.40;;;;;;5012188;28;20396;-73
2024/02/13 11:17:53;;;;;;;10.03;2.63;;;10.20;36.80;;;;;;5010454;28;20479;-72
2024/02/13 11:20:24;;;;;;;7.38;2.10;;;10.30;36.60;;;;;;5010530;28;20416;-73
2024/02/13 11:22:59;;;;;;;7.30;1.87;;;10.50;35.40;;;;;;5010772;28;20790;-73
2024/02/13 11:25:26;;;;;;;9.95;2.00;;;10.60;34.90;;;;;;5010801;28;20388;-73
2024/02/13 11:28:02;;;;;;;6.65;1.90;;;10.60;32.90;;;;;;5010490;28;20393;-73
2024/02/13 11:30:28;;;;;;;7.40;2.00;;;10.60;33.90;;;;;;5012493;28;20401;-73
2024/02/13 11:33:01;;;;;;;3.65;1.50;;;10.60;33.80;;;;;;5016255;28;20379;-73
2024/02/13 11:35:39;;;;;;;5.30;1.60;;;10.70;33.30;;;;;;5033867;28;20802;-73
2024/02/13 11:38:12;;;;;;;7.38;1.65;;;10.80;33.10;;;;;;5013049;28;20511;-73
2024/02/13 11:40:44;;;;;;;6.45;1.80;;;10.70;32.10;;;;;;5027813;28;20423;-72
2024/02/13 11:43:20;;;;;;;6.47;2.00;;;10.80;32.00;;;;;;4995963;28;20406;-74
2024/02/13 11:45:45;;;;;;;8.23;1.90;;;10.90;31.60;;;;;;5009601;28;20385;-74
2024/02/13 11:48:15;;;;;;;5.23;1.50;;;10.90;31.30;;;;;;5010343;28;20393;-74
2024/02/13 11:50:40;;;;;;;5.03;1.80;;;11.00;31.10;;;;;;5023462;28;20816;-73
2024/02/13 11:53:06;;;;;;;6.95;2.13;;;11.00;30.50;;;;;;5033302;28;20454;-73
2024/02/13 11:55:32;;;;;;;4.30;2.00;;;10.90;30.70;;;;;;5033145;28;20395;-73
2024/02/13 11:57:59;;;;;;;5.90;1.67;;;10.90;30.30;;;;;;5017867;28;20391;-74
2024/02/13 12:00:26;;;;;;;3.85;1.52;;;10.80;29.70;;;;;;5013418;28;20902;-74
2024/02/13 12:02:54;;;;;;;5.00;1.90;;;10.70;29.90;;;;;;5013222;28;20735;-74
2024/02/13 12:05:24;;;;;;;4.80;1.50;;;10.70;30.20;;;;;;5018237;28;20421;-73
2024/02/13 12:07:51;;;;;;;7.18;1.70;;;10.80;29.80;;;;;;5033203;28;20379;-72
2024/02/13 12:10:18;;;;;;;6.90;1.80;;;10.90;29.70;;;;;;5033452;28;21107;-73
2024/02/13 12:12:44;;;;;;;5.75;1.83;;;10.90;29.50;;;;;;5024552;28;20398;-73
2024/02/13 12:15:10;;;;;;;5.53;1.60;;;11.00;29.20;;;;;;5029566;28;20387;-74
2024/02/13 12:17:43;;;;;;;7.30;1.63;;;10.90;30.00;;;;;;5029638;28;20393;-73
2024/02/13 12:20:12;;;;;;;4.60;1.60;;;11.00;29.50;;;;;;5022049;28;20518;-73
2024/02/13 12:22:41;;;;;;;7.47;1.70;;;11.00;29.80;;;;;;5032886;28;20395;-72
2024/02/13 12:25:07;;;;;;;7.50;1.80;;;11.10;29.30;;;;;;5021438;28;20395;-75
2024/02/13 12:27:33;;;;;;;8.05;1.90;;;11.10;29.00;;;;;;5032918;28;20608;-75
2024/02/13 12:29:59;;;;;;;6.50;1.70;;;11.30;29.20;;;;;;5026523;28;20540;-74
2024/02/13 12:32:25;;;;;;;7.20;1.60;;;11.40;28.70;;;;;;5013699;28;20381;-74
2024/02/13 12:34:54;;;;;;;5.45;1.60;;;11.20;29.40;;;;;;5023246;28;20411;-74
2024/02/13 12:37:20;;;;;;;5.93;2.43;;;11.20;29.20;;;;;;5027173;28;20530;-75
2024/02/13 12:39:49;;;;;;;5.38;1.60;;;11.00;30.30;;;;;;5026269;28;20404;-72
2024/02/13 12:42:17;;;;;;;4.85;1.95;;;10.80;29.70;;;;;;5012348;28;20404;-74